Hlavní strana
METAR-TAF:

METAR-TAF

Letiště :

Letiště Kiruna

Kiruna, Švédsko

zeměpisná šířka: 67-49N, zeměpisná délka: 020-20E, výška: 452 m

Aktuální stav počasí

Zpráva byla vytvořena před 36 minutami, v 06:50 UTC
Jihozápadní vítr 9 kt
Teplota 8°C
Vlhkost vzduchu 66%
Tlak 1022 hPa
Viditelnost 10 km a více

METAR: ESNQ 250650Z AUTO 23009KT 9999 NCD 08/02 Q1022

Čas: 09:26 (07:26 UTC)

Předpověď počasí

Zpráva byla vytvořena před 19 hodinami a 56 minutami, v 11:30 UTC
Předpověď platná od 24 v 12 UTC do 24 v 14 UTC
Jihojihozápadní vítr 10 kt
Viditelnost 10 km a více
Polojasno ve výšce 3000 ft

TAF: ESNQ 241130Z 2412/2414 21010KT 9999 SCT030

Stav a předpovědi počasí z více než 4 000 letišť (zprávy METAR a TAF).

Červené a žluté tečky na mapě představují dostupné meteorologické stanice.

Když kurzor umístíte na tečku, zobrazí se název stanice.

Pak kliknutím zobrazíte stav a předpověď počasí.

Chcete-li změnit mapu, kliknutím na zelené tlačítko se znaménkem +mapu přiblížíte, kliknutím na zelené tlačítko se znaménkem – mapu oddálíte a kliknutím na zelené šipky přejdete na sousední mapy.


METAR-TAF: